createdAt,value
2019-04-11T00:03:44.616Z,28.00
2019-04-11T00:08:47.104Z,27.60
2019-04-11T00:13:49.519Z,25.57
2019-04-11T00:18:51.791Z,25.70
2019-04-11T00:23:54.529Z,29.77
2019-04-11T00:28:56.894Z,23.60
2019-04-11T00:33:58.912Z,24.98
2019-04-11T00:39:01.385Z,27.62
2019-04-11T00:44:03.859Z,25.25
2019-04-11T00:49:06.247Z,27.45
2019-04-11T00:54:08.777Z,27.55
2019-04-11T00:59:10.951Z,26.93
2019-04-11T01:04:13.713Z,26.82
2019-04-11T01:09:15.915Z,30.80
2019-04-11T01:14:17.889Z,22.32
2019-04-11T01:19:19.925Z,26.52
2019-04-11T01:24:22.144Z,26.37
2019-04-11T01:29:25.191Z,28.02
2019-04-11T01:34:28.706Z,22.82
2019-04-11T01:39:57.204Z,24.95
2019-04-11T01:44:59.473Z,26.15
2019-04-11T01:50:02.993Z,24.87
2019-04-11T01:55:05.485Z,24.47
2019-04-11T02:00:10.855Z,27.25
2019-04-11T02:05:25.079Z,30.08
2019-04-11T02:10:28.617Z,28.05
2019-04-11T02:15:30.891Z,27.10
2019-04-11T02:20:33.409Z,25.32
2019-04-11T02:25:51.045Z,23.77
2019-04-11T02:30:55.799Z,25.50
2019-04-11T02:35:58.249Z,22.10
2019-04-11T02:41:01.157Z,23.02
2019-04-11T02:46:11.706Z,22.45
2019-04-11T02:51:07.646Z,25.65
2019-04-11T02:56:11.705Z,22.70
2019-04-11T03:01:15.469Z,23.35
2019-04-11T03:06:19.358Z,24.90
2019-04-11T03:11:23.655Z,22.98
2019-04-11T03:16:39.351Z,22.27
2019-04-11T03:21:33.217Z,21.60
2019-04-11T03:26:35.509Z,23.50
2019-04-11T03:42:07.409Z,24.15
2019-04-11T03:47:08.402Z,22.35
2019-04-11T03:51:55.275Z,23.07
2019-04-11T03:56:59.172Z,24.32
2019-04-11T04:02:03.131Z,21.57
2019-04-11T04:07:06.905Z,18.20
2019-04-11T04:12:11.459Z,21.40
2019-04-11T04:17:25.500Z,20.95
2019-04-11T04:22:35.454Z,22.80
2019-04-11T04:27:38.773Z,21.75
2019-04-11T04:32:42.863Z,20.40
2019-04-11T04:37:47.079Z,22.48
2019-04-11T04:42:53.313Z,22.98
2019-04-11T04:48:00.470Z,25.50
2019-04-11T04:52:58.635Z,19.48
2019-04-11T04:58:02.204Z,19.50
2019-04-11T05:03:05.521Z,23.47
2019-04-11T05:08:08.320Z,20.97
2019-04-11T05:13:12.974Z,23.50
2019-04-11T05:18:17.454Z,19.52
2019-04-11T05:23:19.200Z,17.32
2019-04-11T05:28:21.486Z,18.30
2019-04-11T05:33:23.666Z,19.12
2019-04-11T05:38:25.704Z,18.12
2019-04-11T05:43:31.467Z,21.15
2019-04-11T05:49:00.427Z,17.52
2019-04-11T05:54:06.267Z,16.70
2019-04-11T05:59:18.912Z,19.80
2019-04-11T06:04:30.443Z,15.95
2019-04-11T06:09:36.022Z,19.35
2019-04-11T06:14:44.634Z,20.55
2019-04-11T06:20:06.483Z,20.80
2019-04-11T06:25:46.321Z,19.48
2019-04-11T06:31:06.060Z,21.85
2019-04-11T06:36:26.627Z,17.02
2019-04-11T06:41:43.024Z,19.98
2019-04-11T06:47:08.275Z,18.42
2019-04-11T06:52:10.775Z,19.25
2019-04-11T06:57:16.627Z,18.10
2019-04-11T07:02:21.367Z,18.70
2019-04-11T07:07:27.024Z,18.25
2019-04-11T07:12:40.770Z,20.50
2019-04-11T07:18:21.001Z,16.15
2019-04-11T07:23:44.004Z,16.57
2019-04-11T07:29:04.515Z,17.17
2019-04-11T07:34:37.469Z,18.62
2019-04-11T07:39:58.580Z,16.12
2019-04-11T07:45:04.158Z,13.30
2019-04-11T07:50:07.905Z,16.75
2019-04-11T07:55:11.851Z,14.65
2019-04-11T08:00:38.638Z,13.55
2019-04-11T08:05:53.030Z,15.13
2019-04-11T08:11:06.715Z,13.13
2019-04-11T08:16:28.977Z,12.00
2019-04-11T08:21:50.417Z,14.20
2019-04-11T08:27:17.726Z,13.22
2019-04-11T08:32:38.153Z,13.55
2019-04-11T08:38:09.915Z,10.72
2019-04-11T08:43:17.071Z,11.30
2019-04-11T08:48:19.258Z,11.08
2019-04-11T08:53:40.662Z,16.25
2019-04-11T08:59:22.802Z,12.43
2019-04-11T09:04:50.370Z,13.85
2019-04-11T09:10:13.790Z,12.25
2019-04-11T09:15:35.157Z,14.53
2019-04-11T09:20:50.217Z,11.63
2019-04-11T09:26:30.284Z,12.95
2019-04-11T09:31:50.111Z,13.08
2019-04-11T09:37:18.818Z,11.12
2019-04-11T09:42:41.081Z,12.98
2019-04-11T09:48:08.367Z,18.00
2019-04-11T09:53:05.780Z,10.95
2019-04-11T09:58:23.198Z,11.70
2019-04-11T10:03:28.721Z,9.68
2019-04-11T10:08:37.343Z,10.98
2019-04-11T10:13:59.544Z,14.15
2019-04-11T10:19:08.367Z,9.95
2019-04-11T10:24:30.502Z,10.35
2019-04-11T10:29:50.583Z,11.70
2019-04-11T10:35:12.199Z,13.05
2019-04-11T10:40:44.212Z,9.73
2019-04-11T10:46:15.416Z,12.28
2019-04-11T10:51:27.046Z,10.08
2019-04-11T10:56:41.918Z,10.72
2019-04-11T11:02:18.790Z,8.98
2019-04-11T11:07:24.654Z,8.60
2019-04-11T11:12:35.150Z,11.33
2019-04-11T11:23:20.469Z,9.05
2019-04-11T11:28:23.790Z,10.10
2019-04-11T11:33:27.935Z,12.43
2019-04-11T11:38:30.283Z,11.85
2019-04-11T11:43:33.060Z,11.53
2019-04-11T11:48:46.384Z,9.93
2019-04-11T11:54:07.088Z,11.83
2019-04-11T11:59:40.726Z,13.22
2019-04-11T12:04:52.621Z,13.50
2019-04-11T12:10:15.277Z,11.93
2019-04-11T12:15:41.332Z,13.65
2019-04-11T12:20:49.346Z,15.30
2019-04-11T12:25:51.609Z,19.15
2019-04-11T12:31:00.716Z,11.50
2019-04-11T12:36:12.550Z,13.18
2019-04-11T12:41:29.151Z,13.08
2019-04-11T12:46:49.322Z,13.75
2019-04-11T12:52:10.127Z,11.93
2019-04-11T12:57:30.075Z,14.07
2019-04-11T13:03:00.450Z,12.58
2019-04-11T13:08:27.222Z,10.58
2019-04-11T13:13:34.287Z,10.70
2019-04-11T13:19:04.651Z,12.18
2019-04-11T13:24:34.250Z,10.32
2019-04-11T13:30:04.779Z,12.95
2019-04-11T13:35:37.881Z,14.35
2019-04-11T13:41:01.827Z,12.90
2019-04-11T13:46:32.166Z,10.55
2019-04-11T13:51:51.896Z,12.98
2019-04-11T13:57:09.772Z,11.12
2019-04-11T14:02:20.386Z,14.65
2019-04-11T14:07:23.616Z,11.68
2019-04-11T14:12:26.325Z,9.58
2019-04-11T14:17:46.330Z,12.95
2019-04-11T14:23:14.889Z,18.05
2019-04-11T14:28:17.317Z,14.03
2019-04-11T14:33:19.083Z,11.70
2019-04-11T14:38:22.368Z,11.97
2019-04-11T14:43:26.300Z,15.32
2019-04-11T14:48:47.516Z,14.75
2019-04-11T14:54:18.421Z,12.63
2019-04-11T14:59:29.987Z,13.78
2019-04-11T15:05:00.054Z,10.68
2019-04-11T15:10:20.071Z,14.03
2019-04-11T15:15:39.304Z,14.58
2019-04-11T15:20:54.861Z,12.70
2019-04-11T15:26:11.455Z,11.43
2019-04-11T15:31:42.018Z,10.43
2019-04-11T15:36:50.727Z,11.63
2019-04-11T15:42:00.360Z,13.20
2019-04-11T15:46:57.664Z,10.65
2019-04-11T15:52:12.345Z,11.80
2019-04-11T15:57:33.476Z,12.80
2019-04-11T16:02:57.219Z,14.45
2019-04-11T16:08:27.291Z,14.00
2019-04-11T16:13:48.462Z,12.00
2019-04-11T16:19:12.435Z,10.55
2019-04-11T16:24:22.571Z,11.70
2019-04-11T16:29:28.224Z,12.75
2019-04-11T16:34:48.554Z,12.23
2019-04-11T16:40:10.095Z,10.70
2019-04-11T16:45:37.686Z,14.18
2019-04-11T16:50:39.267Z,14.58
2019-04-11T16:55:43.233Z,11.30
2019-04-11T17:00:44.541Z,12.05
2019-04-11T17:06:17.952Z,11.03
2019-04-11T17:11:19.675Z,13.20
2019-04-11T17:16:21.667Z,14.00
2019-04-11T17:21:23.439Z,11.40
2019-04-11T17:26:25.155Z,9.95
2019-04-11T17:31:26.881Z,13.05
2019-04-11T17:36:30.817Z,11.83
2019-04-11T17:41:32.103Z,9.25
2019-04-11T17:46:33.670Z,9.10
2019-04-11T17:51:35.369Z,9.98
2019-04-11T17:56:37.033Z,11.03
2019-04-11T18:01:38.625Z,11.55
2019-04-11T18:06:40.360Z,13.88
2019-04-11T18:11:42.072Z,14.05
2019-04-11T18:16:43.709Z,14.70
2019-04-11T18:21:45.520Z,10.88
2019-04-11T18:26:47.216Z,12.70
2019-04-11T18:31:49.419Z,11.48
2019-04-11T18:36:51.064Z,12.00
2019-04-11T18:41:52.755Z,12.78
2019-04-11T18:46:54.528Z,10.20
2019-04-11T18:51:56.102Z,13.88
2019-04-11T18:56:57.827Z,12.58
2019-04-11T19:01:59.547Z,13.85
2019-04-11T19:07:01.196Z,9.23
2019-04-11T19:12:03.995Z,11.90
2019-04-11T19:17:05.708Z,12.53
2019-04-11T19:22:07.621Z,10.88
2019-04-11T19:27:09.283Z,8.75
2019-04-11T19:32:10.895Z,10.32
2019-04-11T19:37:12.770Z,8.95
2019-04-11T19:42:18.810Z,8.68
2019-04-11T19:47:21.387Z,11.38
2019-04-11T19:52:21.678Z,11.35
2019-04-11T19:57:23.387Z,15.53
2019-04-11T20:02:25.137Z,9.93
2019-04-11T20:07:26.872Z,12.85
2019-04-11T20:12:30.060Z,11.55
2019-04-11T20:17:43.795Z,10.55
2019-04-11T20:22:39.210Z,8.83
2019-04-11T20:27:40.304Z,11.73
2019-04-11T20:32:41.982Z,11.38
2019-04-11T20:37:44.705Z,8.70
2019-04-11T20:42:47.065Z,7.97
2019-04-11T20:47:48.745Z,11.93
2019-04-11T20:52:50.471Z,9.58
2019-04-11T20:57:52.624Z,8.93
2019-04-11T21:02:58.117Z,11.55
2019-04-11T21:08:03.093Z,12.95
2019-04-11T21:13:07.103Z,9.48
2019-04-11T21:18:14.447Z,10.85
2019-04-11T21:23:24.425Z,10.53
2019-04-11T21:28:19.743Z,10.18
2019-04-11T21:33:21.593Z,11.33
2019-04-11T21:38:23.271Z,8.70
2019-04-11T21:43:25.011Z,11.53
2019-04-11T21:48:26.704Z,7.15
2019-04-11T21:53:36.449Z,9.43
2019-04-11T21:58:31.912Z,10.08
2019-04-11T22:03:33.791Z,8.85
2019-04-11T22:08:35.376Z,9.43
2019-04-11T22:13:38.021Z,8.00
2019-04-11T22:18:40.695Z,11.35
2019-04-11T22:23:48.750Z,7.20
2019-04-11T22:28:45.856Z,9.55
2019-04-11T22:33:57.843Z,8.78
2019-04-11T22:39:01.110Z,9.80
2019-04-11T22:44:03.259Z,12.20
2019-04-11T22:49:08.642Z,10.65
2019-04-11T22:54:08.331Z,9.40
2019-04-11T22:59:13.570Z,9.25
2019-04-11T23:04:16.591Z,12.15
2019-04-11T23:09:19.539Z,9.80
2019-04-11T23:14:20.614Z,11.22
2019-04-11T23:19:22.324Z,10.13
2019-04-11T23:24:24.030Z,11.35
2019-04-11T23:29:25.605Z,11.15
2019-04-11T23:34:27.332Z,9.28
2019-04-11T23:39:29.129Z,12.37
2019-04-11T23:44:30.888Z,10.28
2019-04-11T23:49:32.543Z,10.38
2019-04-11T23:54:34.187Z,11.73
2019-04-11T23:59:35.787Z,9.75
